sensor_id;sensor_type;location;lat;lon;timestamp;pressure;altitude;pressure_sealevel;temperature;humidity
54389;BME280;40975;50.390;8.640;2023-04-21T00:00:12;98807.69;;;6.39;100.00
54389;BME280;40975;50.390;8.640;2023-04-21T00:02:38;98799.78;;;6.39;100.00
54389;BME280;40975;50.390;8.640;2023-04-21T00:05:07;98813.34;;;6.34;100.00
54389;BME280;40975;50.390;8.640;2023-04-21T00:07:38;98813.97;;;6.27;100.00
54389;BME280;40975;50.390;8.640;2023-04-21T00:10:13;98824.25;;;6.30;100.00
54389;BME280;40975;50.390;8.640;2023-04-21T00:12:38;98818.75;;;6.33;100.00
54389;BME280;40975;50.390;8.640;2023-04-21T00:15:04;98828.44;;;6.32;100.00
54389;BME280;40975;50.390;8.640;2023-04-21T00:17:30;98829.28;;;6.33;100.00
54389;BME280;40975;50.390;8.640;2023-04-21T00:19:56;98821.38;;;6.33;100.00
54389;BME280;40975;50.390;8.640;2023-04-21T00:22:22;98832.75;;;6.33;100.00
54389;BME280;40975;50.390;8.640;2023-04-21T00:24:47;98834.44;;;6.34;100.00
54389;BME280;40975;50.390;8.640;2023-04-21T00:27:13;98829.16;;;6.34;100.00
54389;BME280;40975;50.390;8.640;2023-04-21T00:29:39;98832.63;;;6.35;100.00
54389;BME280;40975;50.390;8.640;2023-04-21T00:32:06;98829.72;;;6.38;100.00
54389;BME280;40975;50.390;8.640;2023-04-21T00:34:35;98835.00;;;6.38;100.00
54389;BME280;40975;50.390;8.640;2023-04-21T00:37:00;98830.59;;;6.38;100.00
54389;BME280;40975;50.390;8.640;2023-04-21T00:39:26;98827.69;;;6.42;100.00
54389;BME280;40975;50.390;8.640;2023-04-21T00:41:51;98827.56;;;6.43;100.00
54389;BME280;40975;50.390;8.640;2023-04-21T00:44:16;98808.31;;;6.31;100.00
54389;BME280;40975;50.390;8.640;2023-04-21T00:46:42;98823.03;;;6.34;100.00
54389;BME280;40975;50.390;8.640;2023-04-21T00:49:07;98824.97;;;6.32;100.00
54389;BME280;40975;50.390;8.640;2023-04-21T00:51:34;98821.38;;;6.33;100.00
54389;BME280;40975;50.390;8.640;2023-04-21T00:54:02;98821.69;;;6.40;100.00
54389;BME280;40975;50.390;8.640;2023-04-21T00:56:30;98831.53;;;6.37;100.00
54389;BME280;40975;50.390;8.640;2023-04-21T00:58:57;98819.19;;;6.38;100.00
54389;BME280;40975;50.390;8.640;2023-04-21T01:01:23;98825.19;;;6.40;100.00
54389;BME280;40975;50.390;8.640;2023-04-21T01:03:49;98821.31;;;6.44;100.00
54389;BME280;40975;50.390;8.640;2023-04-21T01:06:16;98813.41;;;6.44;100.00
54389;BME280;40975;50.390;8.640;2023-04-21T01:08:42;98804.91;;;6.41;100.00
54389;BME280;40975;50.390;8.640;2023-04-21T01:11:11;98801.78;;;6.47;100.00
54389;BME280;40975;50.390;8.640;2023-04-21T01:13:39;98798.94;;;6.38;100.00
54389;BME280;40975;50.390;8.640;2023-04-21T01:16:05;98810.69;;;6.34;100.00
54389;BME280;40975;50.390;8.640;2023-04-21T01:18:32;98807.59;;;6.29;100.00
54389;BME280;40975;50.390;8.640;2023-04-21T01:20:57;98801.25;;;6.32;100.00
54389;BME280;40975;50.390;8.640;2023-04-21T01:23:23;98807.97;;;6.25;100.00
54389;BME280;40975;50.390;8.640;2023-04-21T01:25:50;98811.22;;;6.28;100.00
54389;BME280;40975;50.390;8.640;2023-04-21T01:28:23;98811.84;;;6.20;100.00
54389;BME280;40975;50.390;8.640;2023-04-21T01:30:49;98813.63;;;6.20;100.00
54389;BME280;40975;50.390;8.640;2023-04-21T01:33:14;98811.00;;;6.20;100.00
54389;BME280;40975;50.390;8.640;2023-04-21T01:35:40;98805.13;;;6.16;100.00
54389;BME280;40975;50.390;8.640;2023-04-21T01:38:05;98809.22;;;6.20;100.00
54389;BME280;40975;50.390;8.640;2023-04-21T01:40:30;98806.97;;;6.16;100.00
54389;BME280;40975;50.390;8.640;2023-04-21T01:42:56;98803.47;;;6.15;100.00
54389;BME280;40975;50.390;8.640;2023-04-21T01:45:21;98804.13;;;6.07;100.00
54389;BME280;40975;50.390;8.640;2023-04-21T01:47:46;98801.47;;;6.07;100.00
54389;BME280;40975;50.390;8.640;2023-04-21T01:50:12;98798.13;;;6.05;100.00
54389;BME280;40975;50.390;8.640;2023-04-21T01:52:40;98804.69;;;6.11;100.00
54389;BME280;40975;50.390;8.640;2023-04-21T01:55:06;98805.41;;;6.13;100.00
54389;BME280;40975;50.390;8.640;2023-04-21T01:57:32;98801.09;;;6.12;100.00
54389;BME280;40975;50.390;8.640;2023-04-21T01:59:57;98799.44;;;6.11;100.00
54389;BME280;40975;50.390;8.640;2023-04-21T02:02:23;98801.34;;;6.09;100.00
54389;BME280;40975;50.390;8.640;2023-04-21T02:04:49;98797.16;;;6.06;100.00
54389;BME280;40975;50.390;8.640;2023-04-21T02:07:15;98800.78;;;6.05;100.00
54389;BME280;40975;50.390;8.640;2023-04-21T02:09:40;98795.13;;;6.10;100.00
54389;BME280;40975;50.390;8.640;2023-04-21T02:12:06;98795.50;;;6.05;100.00
54389;BME280;40975;50.390;8.640;2023-04-21T02:14:31;98797.19;;;5.95;100.00
54389;BME280;40975;50.390;8.640;2023-04-21T02:16:57;98799.09;;;5.93;100.00
54389;BME280;40975;50.390;8.640;2023-04-21T02:19:23;98803.88;;;5.99;100.00
54389;BME280;40975;50.390;8.640;2023-04-21T02:21:48;98804.59;;;6.01;100.00
54389;BME280;40975;50.390;8.640;2023-04-21T02:24:14;98801.97;;;6.01;100.00
54389;BME280;40975;50.390;8.640;2023-04-21T02:26:39;98802.53;;;6.05;100.00
54389;BME280;40975;50.390;8.640;2023-04-21T02:29:04;98807.81;;;6.05;100.00
54389;BME280;40975;50.390;8.640;2023-04-21T02:31:30;98802.31;;;5.97;100.00
54389;BME280;40975;50.390;8.640;2023-04-21T02:33:55;98799.81;;;5.95;100.00
54389;BME280;40975;50.390;8.640;2023-04-21T02:36:20;98801.34;;;5.98;100.00
54389;BME280;40975;50.390;8.640;2023-04-21T02:38:46;98805.44;;;6.02;100.00
54389;BME280;40975;50.390;8.640;2023-04-21T02:41:11;98806.50;;;5.99;100.00
54389;BME280;40975;50.390;8.640;2023-04-21T02:43:38;98816.81;;;6.02;100.00
54389;BME280;40975;50.390;8.640;2023-04-21T02:46:07;98818.34;;;6.05;100.00
54389;BME280;40975;50.390;8.640;2023-04-21T02:48:36;98819.41;;;6.14;100.00
54389;BME280;40975;50.390;8.640;2023-04-21T02:51:01;98814.00;;;6.15;100.00
54389;BME280;40975;50.390;8.640;2023-04-21T02:53:28;98819.75;;;6.20;100.00
54389;BME280;40975;50.390;8.640;2023-04-21T02:55:54;98822.72;;;6.27;100.00
54389;BME280;40975;50.390;8.640;2023-04-21T02:58:20;98821.50;;;6.31;100.00
54389;BME280;40975;50.390;8.640;2023-04-21T03:00:46;98813.34;;;6.34;100.00
54389;BME280;40975;50.390;8.640;2023-04-21T03:03:11;98805.28;;;6.36;100.00
54389;BME280;40975;50.390;8.640;2023-04-21T03:05:36;98819.06;;;6.40;100.00
54389;BME280;40975;50.390;8.640;2023-04-21T03:08:02;98819.31;;;6.36;100.00
54389;BME280;40975;50.390;8.640;2023-04-21T03:10:27;98817.50;;;6.37;100.00
54389;BME280;40975;50.390;8.640;2023-04-21T03:12:54;98823.38;;;6.41;100.00
54389;BME280;40975;50.390;8.640;2023-04-21T03:15:20;98814.38;;;6.43;100.00
54389;BME280;40975;50.390;8.640;2023-04-21T03:17:46;98821.31;;;6.44;100.00
54389;BME280;40975;50.390;8.640;2023-04-21T03:20:12;98823.50;;;6.39;100.00
54389;BME280;40975;50.390;8.640;2023-04-21T03:22:38;98820.63;;;6.42;100.00
54389;BME280;40975;50.390;8.640;2023-04-21T03:25:03;98812.97;;;6.39;100.00
54389;BME280;40975;50.390;8.640;2023-04-21T03:27:30;98816.03;;;6.44;100.00
54389;BME280;40975;50.390;8.640;2023-04-21T03:29:55;98822.50;;;6.51;100.00
54389;BME280;40975;50.390;8.640;2023-04-21T03:32:21;98810.13;;;6.52;100.00
54389;BME280;40975;50.390;8.640;2023-04-21T03:34:46;98811.81;;;6.53;100.00
54389;BME280;40975;50.390;8.640;2023-04-21T03:37:12;98811.66;;;6.54;100.00
54389;BME280;40975;50.390;8.640;2023-04-21T03:39:38;98806.38;;;6.54;100.00
54389;BME280;40975;50.390;8.640;2023-04-21T03:42:04;98807.09;;;6.57;100.00
54389;BME280;40975;50.390;8.640;2023-04-21T03:44:30;98801.84;;;6.57;100.00
54389;BME280;40975;50.390;8.640;2023-04-21T03:46:55;98813.22;;;6.57;100.00
54389;BME280;40975;50.390;8.640;2023-04-21T03:49:22;98807.97;;;6.57;100.00
54389;BME280;40975;50.390;8.640;2023-04-21T03:51:47;98800.88;;;6.58;100.00
54389;BME280;40975;50.390;8.640;2023-04-21T03:54:13;98816.81;;;6.56;100.00
54389;BME280;40975;50.390;8.640;2023-04-21T03:56:38;98816.69;;;6.58;100.00
54389;BME280;40975;50.390;8.640;2023-04-21T03:59:04;98807.69;;;6.60;100.00
54389;BME280;40975;50.390;8.640;2023-04-21T04:01:32;98810.31;;;6.60;100.00
54389;BME280;40975;50.390;8.640;2023-04-21T04:03:57;98807.09;;;6.57;100.00
54389;BME280;40975;50.390;8.640;2023-04-21T04:06:22;98801.97;;;6.55;100.00
54389;BME280;40975;50.390;8.640;2023-04-21T04:08:48;98802.69;;;6.57;100.00
54389;BME280;40975;50.390;8.640;2023-04-21T04:11:13;98802.94;;;6.54;100.00
54389;BME280;40975;50.390;8.640;2023-04-21T04:13:38;98798.44;;;6.45;100.00
54389;BME280;40975;50.390;8.640;2023-04-21T04:16:04;98797.28;;;6.37;100.00
54389;BME280;40975;50.390;8.640;2023-04-21T04:18:29;98797.19;;;6.28;100.00
54389;BME280;40975;50.390;8.640;2023-04-21T04:20:55;98802.47;;;6.28;100.00
54389;BME280;40975;50.390;8.640;2023-04-21T04:23:21;98816.59;;;6.27;100.00
54389;BME280;40975;50.390;8.640;2023-04-21T04:25:46;98805.81;;;6.30;100.00
54389;BME280;40975;50.390;8.640;2023-04-21T04:28:13;98811.47;;;6.25;100.00
54389;BME280;40975;50.390;8.640;2023-04-21T04:30:39;98817.22;;;6.19;100.00
54389;BME280;40975;50.390;8.640;2023-04-21T04:33:05;98810.31;;;6.18;100.00
54389;BME280;40975;50.390;8.640;2023-04-21T04:35:30;98811.94;;;6.19;100.00
54389;BME280;40975;50.390;8.640;2023-04-21T04:37:55;98814.00;;;6.15;100.00
54389;BME280;40975;50.390;8.640;2023-04-21T04:40:22;98812.59;;;6.11;100.00
54389;BME280;40975;50.390;8.640;2023-04-21T04:42:47;98819.41;;;6.14;100.00
54389;BME280;40975;50.390;8.640;2023-04-21T04:45:13;98807.06;;;6.14;100.00
54389;BME280;40975;50.390;8.640;2023-04-21T04:47:38;98812.94;;;6.18;100.00
54389;BME280;40975;50.390;8.640;2023-04-21T04:50:05;98813.31;;;6.13;100.00
54389;BME280;40975;50.390;8.640;2023-04-21T04:52:30;98810.75;;;6.23;100.00
54389;BME280;40975;50.390;8.640;2023-04-21T04:54:56;98819.94;;;6.29;100.00
54389;BME280;40975;50.390;8.640;2023-04-21T04:57:21;98810.56;;;6.36;100.00
54389;BME280;40975;50.390;8.640;2023-04-21T04:59:47;98803.00;;;6.43;100.00
54389;BME280;40975;50.390;8.640;2023-04-21T05:02:12;98807.75;;;6.49;100.00
54389;BME280;40975;50.390;8.640;2023-04-21T05:04:38;98810.13;;;6.52;100.00
54389;BME280;40975;50.390;8.640;2023-04-21T05:07:04;98809.63;;;6.58;100.00
54389;BME280;40975;50.390;8.640;2023-04-21T05:09:31;98818.81;;;6.64;100.00
54389;BME280;40975;50.390;8.640;2023-04-21T05:11:57;98811.34;;;6.69;100.00
54389;BME280;40975;50.390;8.640;2023-04-21T05:14:22;98811.69;;;6.76;100.00
54389;BME280;40975;50.390;8.640;2023-04-21T05:16:47;98813.94;;;6.80;100.00
54389;BME280;40975;50.390;8.640;2023-04-21T05:19:13;98812.56;;;6.86;100.00
54389;BME280;40975;50.390;8.640;2023-04-21T05:21:38;98801.88;;;6.88;100.00
54389;BME280;40975;50.390;8.640;2023-04-21T05:24:03;98805.56;;;7.06;100.00
54389;BME280;40975;50.390;8.640;2023-04-21T05:26:29;98804.03;;;7.04;100.00
54389;BME280;40975;50.390;8.640;2023-04-21T05:28:56;98808.22;;;7.06;100.00
54389;BME280;40975;50.390;8.640;2023-04-21T05:31:25;98816.59;;;7.11;100.00
54389;BME280;40975;50.390;8.640;2023-04-21T05:33:50;98822.44;;;7.15;100.00
54389;BME280;40975;50.390;8.640;2023-04-21T05:36:16;98819.66;;;7.16;100.00
54389;BME280;40975;50.390;8.640;2023-04-21T05:38:41;98823.00;;;7.19;100.00
54389;BME280;40975;50.390;8.640;2023-04-21T05:41:06;98827.31;;;7.20;100.00
54389;BME280;40975;50.390;8.640;2023-04-21T05:43:32;98817.19;;;7.25;100.00
54389;BME280;40975;50.390;8.640;2023-04-21T05:46:01;98817.78;;;7.28;100.00
54389;BME280;40975;50.390;8.640;2023-04-21T05:48:27;98815.97;;;7.29;100.00
54389;BME280;40975;50.390;8.640;2023-04-21T05:50:55;98821.94;;;7.31;100.00
54389;BME280;40975;50.390;8.640;2023-04-21T05:53:21;98814.44;;;7.36;100.00
54389;BME280;40975;50.390;8.640;2023-04-21T05:55:47;98813.34;;;7.39;100.00
54389;BME280;40975;50.390;8.640;2023-04-21T05:58:13;98815.00;;;7.40;100.00
54389;BME280;40975;50.390;8.640;2023-04-21T06:00:38;98819.31;;;7.41;100.00
54389;BME280;40975;50.390;8.640;2023-04-21T06:03:03;98815.31;;;7.46;100.00
54389;BME280;40975;50.390;8.640;2023-04-21T06:05:29;98820.34;;;7.50;100.00
54389;BME280;40975;50.390;8.640;2023-04-21T06:07:54;98821.25;;;7.39;100.00
54389;BME280;40975;50.390;8.640;2023-04-21T06:10:19;98827.25;;;7.41;100.00
54389;BME280;40975;50.390;8.640;2023-04-21T06:12:45;98821.84;;;7.42;100.00
54389;BME280;40975;50.390;8.640;2023-04-21T06:15:10;98814.59;;;7.35;100.00
54389;BME280;40975;50.390;8.640;2023-04-21T06:17:36;98813.38;;;7.49;100.00
54389;BME280;40975;50.390;8.640;2023-04-21T06:20:01;98817.88;;;7.58;100.00
54389;BME280;40975;50.390;8.640;2023-04-21T06:22:26;98817.44;;;7.62;100.00
54389;BME280;40975;50.390;8.640;2023-04-21T06:24:52;98811.75;;;7.67;100.00
54389;BME280;40975;50.390;8.640;2023-04-21T06:27:17;98821.50;;;7.67;100.00
54389;BME280;40975;50.390;8.640;2023-04-21T06:29:43;98821.09;;;7.71;100.00
54389;BME280;40975;50.390;8.640;2023-04-21T06:32:09;98823.44;;;7.74;100.00
54389;BME280;40975;50.390;8.640;2023-04-21T06:34:35;98820.81;;;7.74;100.00
54389;BME280;40975;50.390;8.640;2023-04-21T06:37:00;98824.03;;;7.78;100.00
54389;BME280;40975;50.390;8.640;2023-04-21T06:39:26;98828.06;;;7.72;100.00
54389;BME280;40975;50.390;8.640;2023-04-21T06:41:51;98821.25;;;7.80;100.00
54389;BME280;40975;50.390;8.640;2023-04-21T06:44:17;98817.50;;;7.82;100.00
54389;BME280;40975;50.390;8.640;2023-04-21T06:46:42;98813.91;;;7.93;100.00
54389;BME280;40975;50.390;8.640;2023-04-21T06:49:08;98808.47;;;8.04;100.00
54389;BME280;40975;50.390;8.640;2023-04-21T06:51:33;98812.81;;;8.15;100.00
54389;BME280;40975;50.390;8.640;2023-04-21T06:53:59;98814.34;;;8.28;100.00
54389;BME280;40975;50.390;8.640;2023-04-21T06:56:26;98813.50;;;8.37;100.00
54389;BME280;40975;50.390;8.640;2023-04-21T06:58:51;98811.13;;;8.44;100.00
54389;BME280;40975;50.390;8.640;2023-04-21T07:01:16;98816.03;;;8.58;100.00
54389;BME280;40975;50.390;8.640;2023-04-21T07:03:42;98812.53;;;8.67;100.00
54389;BME280;40975;50.390;8.640;2023-04-21T07:06:07;98815.28;;;8.76;100.00
54389;BME280;40975;50.390;8.640;2023-04-21T07:08:32;98820.56;;;8.76;100.00
54389;BME280;40975;50.390;8.640;2023-04-21T07:10:57;98828.13;;;8.70;100.00
54389;BME280;40975;50.390;8.640;2023-04-21T07:13:23;98823.78;;;8.79;100.00
54389;BME280;40975;50.390;8.640;2023-04-21T07:15:48;98829.50;;;8.75;100.00
54389;BME280;40975;50.390;8.640;2023-04-21T07:18:14;98821.13;;;8.79;100.00
54389;BME280;40975;50.390;8.640;2023-04-21T07:20:39;98824.91;;;8.77;100.00
54389;BME280;40975;50.390;8.640;2023-04-21T07:23:04;98819.88;;;8.74;100.00
54389;BME280;40975;50.390;8.640;2023-04-21T07:25:30;98829.63;;;8.83;100.00
54389;BME280;40975;50.390;8.640;2023-04-21T07:27:55;98803.63;;;8.68;100.00
54389;BME280;40975;50.390;8.640;2023-04-21T07:30:20;98833.50;;;8.89;100.00
54389;BME280;40975;50.390;8.640;2023-04-21T07:32:46;98831.53;;;9.00;100.00
54389;BME280;40975;50.390;8.640;2023-04-21T07:35:11;98823.00;;;9.07;100.00
54389;BME280;40975;50.390;8.640;2023-04-21T07:37:36;98828.41;;;9.15;100.00
54389;BME280;40975;50.390;8.640;2023-04-21T07:40:03;98837.06;;;9.17;100.00
54389;BME280;40975;50.390;8.640;2023-04-21T07:42:29;98831.81;;;9.07;100.00
54389;BME280;40975;50.390;8.640;2023-04-21T07:44:54;98831.03;;;9.25;100.00
54389;BME280;40975;50.390;8.640;2023-04-21T07:47:21;98834.94;;;9.30;100.00
54389;BME280;40975;50.390;8.640;2023-04-21T07:49:46;98833.00;;;9.51;100.00
54389;BME280;40975;50.390;8.640;2023-04-21T07:52:12;98827.38;;;9.63;100.00
54389;BME280;40975;50.390;8.640;2023-04-21T07:54:37;98829.53;;;9.78;100.00
54389;BME280;40975;50.390;8.640;2023-04-21T07:57:02;98825.47;;;10.02;100.00
54389;BME280;40975;50.390;8.640;2023-04-21T07:59:28;98835.97;;;9.93;100.00
54389;BME280;40975;50.390;8.640;2023-04-21T08:01:53;98839.56;;;10.02;100.00
54389;BME280;40975;50.390;8.640;2023-04-21T08:04:19;98833.22;;;10.31;100.00
54389;BME280;40975;50.390;8.640;2023-04-21T08:06:44;98836.78;;;10.22;100.00
54389;BME280;40975;50.390;8.640;2023-04-21T08:09:09;98844.75;;;10.58;100.00
54389;BME280;40975;50.390;8.640;2023-04-21T08:11:35;98832.75;;;10.72;100.00
54389;BME280;40975;50.390;8.640;2023-04-21T08:14:00;98824.22;;;10.86;100.00
54389;BME280;40975;50.390;8.640;2023-04-21T08:16:26;98831.63;;;11.01;100.00
54389;BME280;40975;50.390;8.640;2023-04-21T08:18:51;98828.84;;;11.11;100.00
54389;BME280;40975;50.390;8.640;2023-04-21T08:21:16;98829.28;;;10.98;100.00
54389;BME280;40975;50.390;8.640;2023-04-21T08:23:42;98832.69;;;11.16;100.00
54389;BME280;40975;50.390;8.640;2023-04-21T08:26:08;98820.03;;;11.37;100.00
54389;BME280;40975;50.390;8.640;2023-04-21T08:28:33;98826.28;;;11.62;100.00
54389;BME280;40975;50.390;8.640;2023-04-21T08:30:58;98818.97;;;11.64;100.00
54389;BME280;40975;50.390;8.640;2023-04-21T08:33:24;98820.03;;;11.79;100.00
54389;BME280;40975;50.390;8.640;2023-04-21T08:35:50;98816.13;;;12.17;100.00
54389;BME280;40975;50.390;8.640;2023-04-21T08:38:15;98821.28;;;12.18;100.00
54389;BME280;40975;50.390;8.640;2023-04-21T08:40:40;98814.81;;;12.29;100.00
54389;BME280;40975;50.390;8.640;2023-04-21T08:43:07;98817.16;;;12.32;100.00
54389;BME280;40975;50.390;8.640;2023-04-21T08:45:32;98823.31;;;12.24;100.00
54389;BME280;40975;50.390;8.640;2023-04-21T08:47:59;98813.34;;;12.35;100.00
54389;BME280;40975;50.390;8.640;2023-04-21T08:50:28;98820.16;;;12.37;100.00
54389;BME280;40975;50.390;8.640;2023-04-21T08:52:54;98817.94;;;12.90;100.00
54389;BME280;40975;50.390;8.640;2023-04-21T08:55:24;98823.66;;;13.44;100.00
54389;BME280;40975;50.390;8.640;2023-04-21T08:57:50;98816.28;;;12.89;100.00
54389;BME280;40975;50.390;8.640;2023-04-21T09:00:16;98825.94;;;12.90;100.00
54389;BME280;40975;50.390;8.640;2023-04-21T09:02:55;98829.47;;;12.66;100.00
54389;BME280;40975;50.390;8.640;2023-04-21T09:05:25;98817.00;;;12.34;100.00
54389;BME280;40975;50.390;8.640;2023-04-21T09:07:52;98820.81;;;12.31;100.00
54389;BME280;40975;50.390;8.640;2023-04-21T09:10:22;98819.78;;;12.73;100.00
54389;BME280;40975;50.390;8.640;2023-04-21T09:12:50;98814.28;;;12.91;100.00
54389;BME280;40975;50.390;8.640;2023-04-21T09:15:19;98819.41;;;13.10;100.00
54389;BME280;40975;50.390;8.640;2023-04-21T09:17:44;98830.06;;;13.18;100.00
54389;BME280;40975;50.390;8.640;2023-04-21T09:20:20;98835.56;;;14.27;100.00
54389;BME280;40975;50.390;8.640;2023-04-21T09:22:49;98834.06;;;14.02;99.00
54389;BME280;40975;50.390;8.640;2023-04-21T09:25:19;98835.16;;;14.39;100.00
54389;BME280;40975;50.390;8.640;2023-04-21T09:27:45;98832.66;;;14.14;100.00
54389;BME280;40975;50.390;8.640;2023-04-21T09:30:11;98833.91;;;13.72;100.00
54389;BME280;40975;50.390;8.640;2023-04-21T09:32:38;98822.03;;;13.26;100.00
54389;BME280;40975;50.390;8.640;2023-04-21T09:35:13;98823.81;;;12.69;100.00
54389;BME280;40975;50.390;8.640;2023-04-21T09:37:39;98833.31;;;12.47;100.00
54389;BME280;40975;50.390;8.640;2023-04-21T09:40:07;98832.28;;;12.23;100.00
54389;BME280;40975;50.390;8.640;2023-04-21T09:42:36;98824.78;;;12.27;100.00
54389;BME280;40975;50.390;8.640;2023-04-21T09:45:02;98824.16;;;12.41;100.00
54389;BME280;40975;50.390;8.640;2023-04-21T09:47:28;98825.47;;;12.54;100.00
54389;BME280;40975;50.390;8.640;2023-04-21T09:49:57;98820.66;;;12.57;100.00
54389;BME280;40975;50.390;8.640;2023-04-21T09:52:23;98819.66;;;12.34;100.00
54389;BME280;40975;50.390;8.640;2023-04-21T09:54:51;98818.44;;;12.03;100.00
54389;BME280;40975;50.390;8.640;2023-04-21T09:57:24;98822.59;;;11.97;100.00
54389;BME280;40975;50.390;8.640;2023-04-21T10:00:00;98817.94;;;12.00;100.00
54389;BME280;40975;50.390;8.640;2023-04-21T10:02:30;98822.50;;;11.81;100.00
54389;BME280;40975;50.390;8.640;2023-04-21T10:04:58;98818.03;;;11.81;100.00
54389;BME280;40975;50.390;8.640;2023-04-21T10:07:24;98817.50;;;11.78;100.00
54389;BME280;40975;50.390;8.640;2023-04-21T10:09:51;98815.00;;;11.68;100.00
54389;BME280;40975;50.390;8.640;2023-04-21T10:12:19;98814.00;;;11.69;100.00
54389;BME280;40975;50.390;8.640;2023-04-21T10:14:45;98810.00;;;11.65;100.00
54389;BME280;40975;50.390;8.640;2023-04-21T10:17:11;98806.91;;;11.86;100.00
54389;BME280;40975;50.390;8.640;2023-04-21T10:19:37;98809.63;;;12.19;100.00
54389;BME280;40975;50.390;8.640;2023-04-21T10:22:11;98808.19;;;12.41;100.00
54389;BME280;40975;50.390;8.640;2023-04-21T10:24:41;98809.16;;;12.65;100.00
54389;BME280;40975;50.390;8.640;2023-04-21T10:27:11;98813.00;;;12.46;100.00
54389;BME280;40975;50.390;8.640;2023-04-21T10:29:36;98803.50;;;12.35;100.00
54389;BME280;40975;50.390;8.640;2023-04-21T10:32:03;98805.34;;;12.26;100.00
54389;BME280;40975;50.390;8.640;2023-04-21T10:34:37;98811.97;;;12.14;100.00
54389;BME280;40975;50.390;8.640;2023-04-21T10:39:35;98793.53;;;12.12;100.00
54389;BME280;40975;50.390;8.640;2023-04-21T10:44:42;98779.19;;;12.80;100.00
54389;BME280;40975;50.390;8.640;2023-04-21T10:47:07;98769.06;;;13.40;100.00
54389;BME280;40975;50.390;8.640;2023-04-21T10:49:37;98769.00;;;13.48;100.00
54389;BME280;40975;50.390;8.640;2023-04-21T10:52:04;98766.78;;;13.60;100.00
54389;BME280;40975;50.390;8.640;2023-04-21T10:55:08;98771.63;;;13.88;100.00
54389;BME280;40975;50.390;8.640;2023-04-21T10:57:37;98773.22;;;14.43;100.00
54389;BME280;40975;50.390;8.640;2023-04-21T11:00:05;98764.78;;;15.08;94.18
54389;BME280;40975;50.390;8.640;2023-04-21T11:02:32;98768.69;;;15.57;93.42
54389;BME280;40975;50.390;8.640;2023-04-21T11:04:57;98767.03;;;15.93;91.04
54389;BME280;40975;50.390;8.640;2023-04-21T11:07:25;98760.13;;;15.83;87.09
54389;BME280;40975;50.390;8.640;2023-04-21T11:10:01;98764.72;;;15.53;90.44
54389;BME280;40975;50.390;8.640;2023-04-21T11:12:33;98762.69;;;15.55;90.28
54389;BME280;40975;50.390;8.640;2023-04-21T11:15:01;98760.94;;;15.47;87.68
54389;BME280;40975;50.390;8.640;2023-04-21T11:17:26;98769.56;;;15.79;87.32
54389;BME280;40975;50.390;8.640;2023-04-21T11:19:53;98760.63;;;15.87;84.61
54389;BME280;40975;50.390;8.640;2023-04-21T11:22:21;98764.50;;;16.28;88.89
54389;BME280;40975;50.390;8.640;2023-04-21T11:24:48;98764.31;;;16.29;83.57
54389;BME280;40975;50.390;8.640;2023-04-21T11:27:14;98761.16;;;16.47;83.79
54389;BME280;40975;50.390;8.640;2023-04-21T11:29:40;98756.84;;;16.03;82.55
54389;BME280;40975;50.390;8.640;2023-04-21T11:32:07;98755.00;;;15.67;84.27
54389;BME280;40975;50.390;8.640;2023-04-21T11:34:33;98745.75;;;15.84;85.69
54389;BME280;40975;50.390;8.640;2023-04-21T11:37:00;98742.41;;;15.82;85.76
54389;BME280;40975;50.390;8.640;2023-04-21T11:39:26;98740.56;;;15.83;84.32
54389;BME280;40975;50.390;8.640;2023-04-21T11:41:51;98738.78;;;15.02;86.76
54389;BME280;40975;50.390;8.640;2023-04-21T11:44:34;98741.25;;;15.18;91.25
54389;BME280;40975;50.390;8.640;2023-04-21T11:47:00;98743.03;;;14.96;88.42
54389;BME280;40975;50.390;8.640;2023-04-21T11:52:21;98735.50;;;14.23;92.13
54389;BME280;40975;50.390;8.640;2023-04-21T11:54:46;98736.06;;;13.95;93.02
54389;BME280;40975;50.390;8.640;2023-04-21T11:57:12;98733.75;;;14.15;95.09
54389;BME280;40975;50.390;8.640;2023-04-21T11:59:37;98732.63;;;14.10;93.76
54389;BME280;40975;50.390;8.640;2023-04-21T12:02:02;98730.88;;;14.17;95.03
54389;BME280;40975;50.390;8.640;2023-04-21T12:04:28;98730.72;;;13.95;93.99
54389;BME280;40975;50.390;8.640;2023-04-21T12:07:01;98729.38;;;13.99;94.05
54389;BME280;40975;50.390;8.640;2023-04-21T12:09:28;98729.78;;;14.11;96.09
54389;BME280;40975;50.390;8.640;2023-04-21T12:11:55;98722.78;;;14.10;95.85
54389;BME280;40975;50.390;8.640;2023-04-21T12:14:25;98721.72;;;13.96;95.94
54389;BME280;40975;50.390;8.640;2023-04-21T12:16:53;98713.41;;;14.14;95.47
54389;BME280;40975;50.390;8.640;2023-04-21T12:19:23;98715.72;;;14.33;94.49
54389;BME280;40975;50.390;8.640;2023-04-21T12:21:55;98720.81;;;14.27;91.52
54389;BME280;40975;50.390;8.640;2023-04-21T12:24:21;98717.13;;;14.28;92.46
54389;BME280;40975;50.390;8.640;2023-04-21T12:26:46;98714.25;;;14.68;92.61
54389;BME280;40975;50.390;8.640;2023-04-21T12:29:12;98708.19;;;14.89;90.66
54389;BME280;40975;50.390;8.640;2023-04-21T12:31:37;98709.16;;;15.33;89.01
54389;BME280;40975;50.390;8.640;2023-04-21T12:34:02;98704.94;;;15.61;85.78
54389;BME280;40975;50.390;8.640;2023-04-21T12:36:28;98701.03;;;16.00;83.33
54389;BME280;40975;50.390;8.640;2023-04-21T12:38:53;98701.31;;;16.34;84.06
54389;BME280;40975;50.390;8.640;2023-04-21T12:41:18;98700.88;;;16.30;81.97
54389;BME280;40975;50.390;8.640;2023-04-21T12:43:44;98693.72;;;16.37;86.21
54389;BME280;40975;50.390;8.640;2023-04-21T12:46:10;98694.47;;;16.59;80.43
54389;BME280;40975;50.390;8.640;2023-04-21T12:48:35;98691.47;;;16.69;80.70
54389;BME280;40975;50.390;8.640;2023-04-21T12:51:00;98683.13;;;16.57;79.31
54389;BME280;40975;50.390;8.640;2023-04-21T12:53:26;98687.25;;;16.53;78.24
54389;BME280;40975;50.390;8.640;2023-04-21T12:55:51;98686.66;;;16.58;80.46
54389;BME280;40975;50.390;8.640;2023-04-21T12:58:16;98680.91;;;16.61;79.10
54389;BME280;40975;50.390;8.640;2023-04-21T13:00:42;98684.78;;;16.58;78.28